sensor_id;sensor_type;location;lat;lon;timestamp;P1;durP1;ratioP1;P2;durP2;ratioP2
12990;SDS011;6560;57.692;11.958;2023-04-06T00:00:03;2.30;;;2.10;;
12990;SDS011;6560;57.692;11.958;2023-04-06T00:02:30;3.47;;;2.20;;
12990;SDS011;6560;57.692;11.958;2023-04-06T00:04:55;3.10;;;2.80;;
12990;SDS011;6560;57.692;11.958;2023-04-06T00:07:22;7.00;;;2.50;;
12990;SDS011;6560;57.692;11.958;2023-04-06T00:09:47;3.80;;;2.40;;
12990;SDS011;6560;57.692;11.958;2023-04-06T00:12:13;3.40;;;2.20;;
12990;SDS011;6560;57.692;11.958;2023-04-06T00:14:38;2.90;;;2.00;;
12990;SDS011;6560;57.692;11.958;2023-04-06T00:17:05;3.53;;;2.47;;
12990;SDS011;6560;57.692;11.958;2023-04-06T00:19:30;2.83;;;2.23;;
12990;SDS011;6560;57.692;11.958;2023-04-06T00:21:56;3.63;;;2.20;;
12990;SDS011;6560;57.692;11.958;2023-04-06T00:24:21;3.23;;;2.27;;
12990;SDS011;6560;57.692;11.958;2023-04-06T00:26:47;4.77;;;2.50;;
12990;SDS011;6560;57.692;11.958;2023-04-06T00:29:12;2.63;;;2.27;;
12990;SDS011;6560;57.692;11.958;2023-04-06T00:31:38;2.67;;;2.17;;
12990;SDS011;6560;57.692;11.958;2023-04-06T00:34:03;3.77;;;2.27;;
12990;SDS011;6560;57.692;11.958;2023-04-06T00:36:29;3.53;;;2.17;;
12990;SDS011;6560;57.692;11.958;2023-04-06T00:38:55;2.73;;;2.20;;
12990;SDS011;6560;57.692;11.958;2023-04-06T00:41:20;3.40;;;2.23;;
12990;SDS011;6560;57.692;11.958;2023-04-06T00:43:46;2.17;;;1.90;;
12990;SDS011;6560;57.692;11.958;2023-04-06T00:46:11;4.10;;;2.07;;
12990;SDS011;6560;57.692;11.958;2023-04-06T00:48:37;3.97;;;2.10;;
12990;SDS011;6560;57.692;11.958;2023-04-06T00:51:04;2.47;;;2.10;;
12990;SDS011;6560;57.692;11.958;2023-04-06T00:53:29;2.87;;;2.30;;
12990;SDS011;6560;57.692;11.958;2023-04-06T00:55:55;3.57;;;2.10;;
12990;SDS011;6560;57.692;11.958;2023-04-06T00:58:20;2.70;;;2.20;;
12990;SDS011;6560;57.692;11.958;2023-04-06T01:00:46;2.67;;;2.30;;
12990;SDS011;6560;57.692;11.958;2023-04-06T01:03:12;2.37;;;2.17;;
12990;SDS011;6560;57.692;11.958;2023-04-06T01:05:37;3.07;;;2.33;;
12990;SDS011;6560;57.692;11.958;2023-04-06T01:08:05;3.27;;;2.43;;
12990;SDS011;6560;57.692;11.958;2023-04-06T01:10:32;3.97;;;1.87;;
12990;SDS011;6560;57.692;11.958;2023-04-06T01:12:57;4.03;;;2.87;;
12990;SDS011;6560;57.692;11.958;2023-04-06T01:15:23;4.47;;;2.23;;
12990;SDS011;6560;57.692;11.958;2023-04-06T01:17:49;3.93;;;1.93;;
12990;SDS011;6560;57.692;11.958;2023-04-06T01:20:15;3.93;;;2.53;;
12990;SDS011;6560;57.692;11.958;2023-04-06T01:22:40;2.77;;;2.27;;
12990;SDS011;6560;57.692;11.958;2023-04-06T01:25:06;3.17;;;1.90;;
12990;SDS011;6560;57.692;11.958;2023-04-06T01:27:32;3.33;;;2.40;;
12990;SDS011;6560;57.692;11.958;2023-04-06T01:29:57;4.37;;;2.53;;
12990;SDS011;6560;57.692;11.958;2023-04-06T01:32:23;6.77;;;3.10;;
12990;SDS011;6560;57.692;11.958;2023-04-06T01:34:49;2.70;;;2.07;;
12990;SDS011;6560;57.692;11.958;2023-04-06T01:37:15;4.40;;;2.73;;
12990;SDS011;6560;57.692;11.958;2023-04-06T01:39:41;3.83;;;2.53;;
12990;SDS011;6560;57.692;11.958;2023-04-06T01:42:08;3.60;;;2.50;;
12990;SDS011;6560;57.692;11.958;2023-04-06T01:44:33;4.73;;;3.23;;
12990;SDS011;6560;57.692;11.958;2023-04-06T01:46:59;2.53;;;2.33;;
12990;SDS011;6560;57.692;11.958;2023-04-06T01:49:25;7.60;;;2.40;;
12990;SDS011;6560;57.692;11.958;2023-04-06T01:51:50;3.20;;;2.43;;
12990;SDS011;6560;57.692;11.958;2023-04-06T01:54:16;3.53;;;2.50;;
12990;SDS011;6560;57.692;11.958;2023-04-06T01:56:43;2.90;;;2.47;;
12990;SDS011;6560;57.692;11.958;2023-04-06T01:59:08;3.43;;;2.70;;
12990;SDS011;6560;57.692;11.958;2023-04-06T02:01:34;3.93;;;2.13;;
12990;SDS011;6560;57.692;11.958;2023-04-06T02:04:00;2.70;;;2.10;;
12990;SDS011;6560;57.692;11.958;2023-04-06T02:06:25;3.30;;;2.33;;
12990;SDS011;6560;57.692;11.958;2023-04-06T02:08:51;3.60;;;2.13;;
12990;SDS011;6560;57.692;11.958;2023-04-06T02:11:17;4.53;;;2.50;;
12990;SDS011;6560;57.692;11.958;2023-04-06T02:13:43;2.47;;;2.20;;
12990;SDS011;6560;57.692;11.958;2023-04-06T02:16:08;2.47;;;2.17;;
12990;SDS011;6560;57.692;11.958;2023-04-06T02:18:35;3.63;;;2.80;;
12990;SDS011;6560;57.692;11.958;2023-04-06T02:21:01;2.70;;;2.30;;
12990;SDS011;6560;57.692;11.958;2023-04-06T02:23:26;2.17;;;1.97;;
12990;SDS011;6560;57.692;11.958;2023-04-06T02:25:51;3.23;;;2.47;;
12990;SDS011;6560;57.692;11.958;2023-04-06T02:28:17;4.10;;;3.27;;
12990;SDS011;6560;57.692;11.958;2023-04-06T02:30:42;3.30;;;3.00;;
12990;SDS011;6560;57.692;11.958;2023-04-06T02:33:08;4.27;;;3.10;;
12990;SDS011;6560;57.692;11.958;2023-04-06T02:35:33;2.97;;;2.60;;
12990;SDS011;6560;57.692;11.958;2023-04-06T02:37:59;2.97;;;2.40;;
12990;SDS011;6560;57.692;11.958;2023-04-06T02:40:25;3.20;;;2.43;;
12990;SDS011;6560;57.692;11.958;2023-04-06T02:42:50;2.80;;;2.47;;
12990;SDS011;6560;57.692;11.958;2023-04-06T02:45:15;2.73;;;2.43;;
12990;SDS011;6560;57.692;11.958;2023-04-06T02:47:41;2.93;;;2.63;;
12990;SDS011;6560;57.692;11.958;2023-04-06T02:50:07;2.83;;;2.63;;
12990;SDS011;6560;57.692;11.958;2023-04-06T02:52:32;4.73;;;3.10;;
12990;SDS011;6560;57.692;11.958;2023-04-06T02:54:58;3.10;;;2.33;;
12990;SDS011;6560;57.692;11.958;2023-04-06T02:57:23;3.80;;;2.93;;
12990;SDS011;6560;57.692;11.958;2023-04-06T02:59:49;3.20;;;2.70;;
12990;SDS011;6560;57.692;11.958;2023-04-06T03:02:15;3.00;;;2.20;;
12990;SDS011;6560;57.692;11.958;2023-04-06T03:04:42;4.60;;;2.63;;
12990;SDS011;6560;57.692;11.958;2023-04-06T03:07:09;4.47;;;2.30;;
12990;SDS011;6560;57.692;11.958;2023-04-06T03:09:36;4.57;;;2.90;;
12990;SDS011;6560;57.692;11.958;2023-04-06T03:12:02;4.13;;;3.00;;
12990;SDS011;6560;57.692;11.958;2023-04-06T03:14:27;4.57;;;2.80;;
12990;SDS011;6560;57.692;11.958;2023-04-06T03:16:53;4.03;;;2.90;;
12990;SDS011;6560;57.692;11.958;2023-04-06T03:19:19;4.03;;;2.60;;
12990;SDS011;6560;57.692;11.958;2023-04-06T03:21:44;4.53;;;3.40;;
12990;SDS011;6560;57.692;11.958;2023-04-06T03:24:10;3.67;;;2.70;;
12990;SDS011;6560;57.692;11.958;2023-04-06T03:26:36;3.77;;;3.10;;
12990;SDS011;6560;57.692;11.958;2023-04-06T03:29:01;5.07;;;2.80;;
12990;SDS011;6560;57.692;11.958;2023-04-06T03:31:27;5.97;;;2.87;;
12990;SDS011;6560;57.692;11.958;2023-04-06T03:33:52;4.50;;;2.73;;
12990;SDS011;6560;57.692;11.958;2023-04-06T03:36:18;3.37;;;2.70;;
12990;SDS011;6560;57.692;11.958;2023-04-06T03:38:45;3.47;;;2.90;;
12990;SDS011;6560;57.692;11.958;2023-04-06T03:41:10;2.77;;;2.30;;
12990;SDS011;6560;57.692;11.958;2023-04-06T03:43:36;3.73;;;2.43;;
12990;SDS011;6560;57.692;11.958;2023-04-06T03:46:02;4.27;;;3.10;;
12990;SDS011;6560;57.692;11.958;2023-04-06T03:48:27;3.73;;;3.07;;
12990;SDS011;6560;57.692;11.958;2023-04-06T03:50:52;5.47;;;3.10;;
12990;SDS011;6560;57.692;11.958;2023-04-06T03:53:18;3.10;;;2.60;;
12990;SDS011;6560;57.692;11.958;2023-04-06T03:55:44;3.30;;;2.63;;
12990;SDS011;6560;57.692;11.958;2023-04-06T03:58:09;3.53;;;2.30;;
12990;SDS011;6560;57.692;11.958;2023-04-06T04:00:35;3.57;;;3.27;;
12990;SDS011;6560;57.692;11.958;2023-04-06T04:03:01;2.57;;;2.37;;
12990;SDS011;6560;57.692;11.958;2023-04-06T04:05:27;2.87;;;2.57;;
12990;SDS011;6560;57.692;11.958;2023-04-06T04:07:53;4.70;;;3.23;;
12990;SDS011;6560;57.692;11.958;2023-04-06T04:10:18;2.60;;;2.40;;
12990;SDS011;6560;57.692;11.958;2023-04-06T04:12:43;3.53;;;2.67;;
12990;SDS011;6560;57.692;11.958;2023-04-06T04:15:09;3.53;;;2.87;;
12990;SDS011;6560;57.692;11.958;2023-04-06T04:17:34;3.17;;;2.87;;
12990;SDS011;6560;57.692;11.958;2023-04-06T04:20:00;3.17;;;2.60;;
12990;SDS011;6560;57.692;11.958;2023-04-06T04:22:26;3.40;;;3.10;;
12990;SDS011;6560;57.692;11.958;2023-04-06T04:24:52;3.37;;;3.07;;
12990;SDS011;6560;57.692;11.958;2023-04-06T04:27:18;3.20;;;2.60;;
12990;SDS011;6560;57.692;11.958;2023-04-06T04:29:43;3.00;;;2.33;;
12990;SDS011;6560;57.692;11.958;2023-04-06T04:32:09;2.50;;;2.30;;
12990;SDS011;6560;57.692;11.958;2023-04-06T04:34:34;2.80;;;2.47;;
12990;SDS011;6560;57.692;11.958;2023-04-06T04:37:00;3.43;;;3.10;;
12990;SDS011;6560;57.692;11.958;2023-04-06T04:39:26;4.23;;;3.33;;
12990;SDS011;6560;57.692;11.958;2023-04-06T04:41:51;4.57;;;3.63;;
12990;SDS011;6560;57.692;11.958;2023-04-06T04:44:16;4.20;;;2.97;;
12990;SDS011;6560;57.692;11.958;2023-04-06T04:46:42;4.83;;;3.50;;
12990;SDS011;6560;57.692;11.958;2023-04-06T04:49:07;5.07;;;3.27;;
12990;SDS011;6560;57.692;11.958;2023-04-06T04:51:33;3.03;;;2.57;;
12990;SDS011;6560;57.692;11.958;2023-04-06T04:53:58;3.93;;;3.20;;
12990;SDS011;6560;57.692;11.958;2023-04-06T04:56:24;5.63;;;3.80;;
12990;SDS011;6560;57.692;11.958;2023-04-06T04:58:50;3.70;;;3.10;;
12990;SDS011;6560;57.692;11.958;2023-04-06T05:01:15;4.40;;;3.00;;
12990;SDS011;6560;57.692;11.958;2023-04-06T05:03:41;4.37;;;3.43;;
12990;SDS011;6560;57.692;11.958;2023-04-06T05:06:06;4.30;;;3.60;;
12990;SDS011;6560;57.692;11.958;2023-04-06T05:08:32;3.83;;;3.27;;
12990;SDS011;6560;57.692;11.958;2023-04-06T05:10:58;3.83;;;2.87;;
12990;SDS011;6560;57.692;11.958;2023-04-06T05:13:23;3.50;;;2.80;;
12990;SDS011;6560;57.692;11.958;2023-04-06T05:15:49;3.50;;;3.20;;
12990;SDS011;6560;57.692;11.958;2023-04-06T05:18:14;3.70;;;3.30;;
12990;SDS011;6560;57.692;11.958;2023-04-06T05:20:40;4.43;;;3.07;;
12990;SDS011;6560;57.692;11.958;2023-04-06T05:23:06;2.93;;;2.63;;
12990;SDS011;6560;57.692;11.958;2023-04-06T05:25:31;4.90;;;3.33;;
12990;SDS011;6560;57.692;11.958;2023-04-06T05:27:57;4.10;;;3.37;;
12990;SDS011;6560;57.692;11.958;2023-04-06T05:30:23;3.57;;;3.07;;
12990;SDS011;6560;57.692;11.958;2023-04-06T05:32:48;3.70;;;3.20;;
12990;SDS011;6560;57.692;11.958;2023-04-06T05:35:14;4.97;;;3.17;;
12990;SDS011;6560;57.692;11.958;2023-04-06T05:37:40;4.03;;;3.10;;
12990;SDS011;6560;57.692;11.958;2023-04-06T05:40:07;5.17;;;3.00;;
12990;SDS011;6560;57.692;11.958;2023-04-06T05:42:38;4.07;;;3.03;;
12990;SDS011;6560;57.692;11.958;2023-04-06T05:45:07;6.20;;;3.33;;
12990;SDS011;6560;57.692;11.958;2023-04-06T05:47:34;2.67;;;2.40;;
12990;SDS011;6560;57.692;11.958;2023-04-06T05:50:00;3.50;;;3.13;;
12990;SDS011;6560;57.692;11.958;2023-04-06T05:52:25;4.03;;;3.43;;
12990;SDS011;6560;57.692;11.958;2023-04-06T05:54:51;4.13;;;2.83;;
12990;SDS011;6560;57.692;11.958;2023-04-06T05:57:17;3.63;;;3.30;;
12990;SDS011;6560;57.692;11.958;2023-04-06T05:59:43;3.37;;;2.70;;
12990;SDS011;6560;57.692;11.958;2023-04-06T06:02:10;6.17;;;3.50;;
12990;SDS011;6560;57.692;11.958;2023-04-06T06:04:35;3.67;;;2.90;;
12990;SDS011;6560;57.692;11.958;2023-04-06T06:07:01;3.10;;;2.80;;
12990;SDS011;6560;57.692;11.958;2023-04-06T06:09:26;5.20;;;3.10;;
12990;SDS011;6560;57.692;11.958;2023-04-06T06:11:52;4.43;;;3.10;;
12990;SDS011;6560;57.692;11.958;2023-04-06T06:14:17;4.37;;;3.60;;
12990;SDS011;6560;57.692;11.958;2023-04-06T06:16:43;4.47;;;3.00;;
12990;SDS011;6560;57.692;11.958;2023-04-06T06:19:08;5.23;;;2.70;;
12990;SDS011;6560;57.692;11.958;2023-04-06T06:21:34;6.10;;;3.57;;
12990;SDS011;6560;57.692;11.958;2023-04-06T06:24:00;3.80;;;2.70;;
12990;SDS011;6560;57.692;11.958;2023-04-06T06:26:25;6.33;;;3.37;;
12990;SDS011;6560;57.692;11.958;2023-04-06T06:28:51;5.80;;;2.77;;
12990;SDS011;6560;57.692;11.958;2023-04-06T06:31:16;2.70;;;2.50;;
12990;SDS011;6560;57.692;11.958;2023-04-06T06:33:42;3.80;;;3.20;;
12990;SDS011;6560;57.692;11.958;2023-04-06T06:36:07;2.97;;;2.67;;
12990;SDS011;6560;57.692;11.958;2023-04-06T06:38:33;3.33;;;3.03;;
12990;SDS011;6560;57.692;11.958;2023-04-06T06:41:05;4.73;;;3.10;;
12990;SDS011;6560;57.692;11.958;2023-04-06T06:43:31;5.70;;;3.10;;
12990;SDS011;6560;57.692;11.958;2023-04-06T06:45:57;5.53;;;3.03;;
12990;SDS011;6560;57.692;11.958;2023-04-06T06:48:23;6.00;;;3.27;;
12990;SDS011;6560;57.692;11.958;2023-04-06T06:50:49;4.83;;;3.20;;
12990;SDS011;6560;57.692;11.958;2023-04-06T06:53:14;4.90;;;2.67;;
12990;SDS011;6560;57.692;11.958;2023-04-06T06:55:40;4.07;;;3.10;;
12990;SDS011;6560;57.692;11.958;2023-04-06T06:58:05;2.97;;;2.73;;
12990;SDS011;6560;57.692;11.958;2023-04-06T07:00:31;5.10;;;2.73;;
12990;SDS011;6560;57.692;11.958;2023-04-06T07:02:59;8.73;;;3.33;;
12990;SDS011;6560;57.692;11.958;2023-04-06T07:05:25;4.13;;;2.27;;
12990;SDS011;6560;57.692;11.958;2023-04-06T07:07:51;3.87;;;2.40;;
12990;SDS011;6560;57.692;11.958;2023-04-06T07:10:16;5.67;;;2.83;;
12990;SDS011;6560;57.692;11.958;2023-04-06T07:12:42;3.90;;;2.73;;
12990;SDS011;6560;57.692;11.958;2023-04-06T07:15:07;5.07;;;3.07;;
12990;SDS011;6560;57.692;11.958;2023-04-06T07:17:33;4.90;;;2.83;;
12990;SDS011;6560;57.692;11.958;2023-04-06T07:19:59;4.10;;;2.77;;
12990;SDS011;6560;57.692;11.958;2023-04-06T07:22:26;6.17;;;2.93;;
12990;SDS011;6560;57.692;11.958;2023-04-06T07:24:52;7.17;;;3.50;;
12990;SDS011;6560;57.692;11.958;2023-04-06T07:27:17;6.93;;;2.67;;
12990;SDS011;6560;57.692;11.958;2023-04-06T07:29:43;5.13;;;3.40;;
12990;SDS011;6560;57.692;11.958;2023-04-06T07:32:09;13.23;;;3.90;;
12990;SDS011;6560;57.692;11.958;2023-04-06T07:34:35;11.23;;;3.63;;
12990;SDS011;6560;57.692;11.958;2023-04-06T07:37:00;6.70;;;2.90;;
12990;SDS011;6560;57.692;11.958;2023-04-06T07:39:26;7.33;;;3.80;;
12990;SDS011;6560;57.692;11.958;2023-04-06T07:41:52;6.93;;;4.17;;
12990;SDS011;6560;57.692;11.958;2023-04-06T07:44:17;4.77;;;3.23;;
12990;SDS011;6560;57.692;11.958;2023-04-06T07:46:43;6.00;;;3.50;;
12990;SDS011;6560;57.692;11.958;2023-04-06T07:49:09;9.50;;;4.30;;
12990;SDS011;6560;57.692;11.958;2023-04-06T07:51:38;3.13;;;2.27;;
12990;SDS011;6560;57.692;11.958;2023-04-06T07:54:04;3.53;;;3.00;;
12990;SDS011;6560;57.692;11.958;2023-04-06T07:56:29;4.53;;;2.87;;
12990;SDS011;6560;57.692;11.958;2023-04-06T07:58:55;5.53;;;3.13;;
12990;SDS011;6560;57.692;11.958;2023-04-06T08:01:22;5.97;;;2.80;;
12990;SDS011;6560;57.692;11.958;2023-04-06T08:03:47;4.03;;;2.90;;
12990;SDS011;6560;57.692;11.958;2023-04-06T08:06:13;5.37;;;2.90;;
12990;SDS011;6560;57.692;11.958;2023-04-06T08:08:39;4.40;;;2.63;;
12990;SDS011;6560;57.692;11.958;2023-04-06T08:11:05;3.63;;;2.50;;
12990;SDS011;6560;57.692;11.958;2023-04-06T08:13:30;3.90;;;3.13;;
12990;SDS011;6560;57.692;11.958;2023-04-06T08:15:56;4.50;;;2.47;;
12990;SDS011;6560;57.692;11.958;2023-04-06T08:18:22;3.97;;;2.77;;
12990;SDS011;6560;57.692;11.958;2023-04-06T08:20:47;5.13;;;2.97;;
12990;SDS011;6560;57.692;11.958;2023-04-06T08:23:14;4.03;;;3.10;;
12990;SDS011;6560;57.692;11.958;2023-04-06T08:25:40;5.57;;;3.10;;
12990;SDS011;6560;57.692;11.958;2023-04-06T08:28:07;4.67;;;2.77;;
12990;SDS011;6560;57.692;11.958;2023-04-06T08:30:34;7.47;;;2.90;;
12990;SDS011;6560;57.692;11.958;2023-04-06T08:33:00;4.13;;;2.80;;
12990;SDS011;6560;57.692;11.958;2023-04-06T08:35:26;4.37;;;2.83;;
12990;SDS011;6560;57.692;11.958;2023-04-06T08:37:52;3.70;;;2.50;;
12990;SDS011;6560;57.692;11.958;2023-04-06T08:40:18;3.60;;;2.90;;
12990;SDS011;6560;57.692;11.958;2023-04-06T08:42:50;3.87;;;2.90;;
12990;SDS011;6560;57.692;11.958;2023-04-06T08:45:19;5.20;;;3.13;;
12990;SDS011;6560;57.692;11.958;2023-04-06T08:47:46;3.43;;;2.67;;
12990;SDS011;6560;57.692;11.958;2023-04-06T08:50:14;5.43;;;3.30;;
12990;SDS011;6560;57.692;11.958;2023-04-06T08:52:42;3.80;;;3.27;;
12990;SDS011;6560;57.692;11.958;2023-04-06T08:55:08;6.73;;;3.43;;
12990;SDS011;6560;57.692;11.958;2023-04-06T08:57:34;4.60;;;3.10;;
12990;SDS011;6560;57.692;11.958;2023-04-06T09:00:01;4.73;;;3.40;;
12990;SDS011;6560;57.692;11.958;2023-04-06T09:02:27;4.47;;;3.00;;
12990;SDS011;6560;57.692;11.958;2023-04-06T09:04:53;4.50;;;3.47;;
12990;SDS011;6560;57.692;11.958;2023-04-06T09:07:20;4.67;;;3.07;;
12990;SDS011;6560;57.692;11.958;2023-04-06T09:09:46;4.83;;;3.33;;
12990;SDS011;6560;57.692;11.958;2023-04-06T09:12:29;4.93;;;3.43;;
12990;SDS011;6560;57.692;11.958;2023-04-06T09:14:56;4.80;;;3.30;;
12990;SDS011;6560;57.692;11.958;2023-04-06T09:17:23;5.17;;;3.40;;
12990;SDS011;6560;57.692;11.958;2023-04-06T09:19:50;5.13;;;3.87;;
12990;SDS011;6560;57.692;11.958;2023-04-06T09:22:16;4.70;;;3.93;;
12990;SDS011;6560;57.692;11.958;2023-04-06T09:24:51;6.83;;;3.87;;
12990;SDS011;6560;57.692;11.958;2023-04-06T09:27:17;5.40;;;3.43;;
12990;SDS011;6560;57.692;11.958;2023-04-06T09:30:02;6.90;;;3.93;;
12990;SDS011;6560;57.692;11.958;2023-04-06T09:32:31;5.87;;;4.10;;
12990;SDS011;6560;57.692;11.958;2023-04-06T09:35:09;7.07;;;4.40;;
12990;SDS011;6560;57.692;11.958;2023-04-06T09:37:34;5.73;;;4.07;;
12990;SDS011;6560;57.692;11.958;2023-04-06T09:40:04;6.07;;;4.67;;
12990;SDS011;6560;57.692;11.958;2023-04-06T09:42:30;6.10;;;3.40;;
12990;SDS011;6560;57.692;11.958;2023-04-06T09:44:56;5.07;;;4.57;;
12990;SDS011;6560;57.692;11.958;2023-04-06T09:47:22;7.90;;;4.33;;
12990;SDS011;6560;57.692;11.958;2023-04-06T09:49:53;7.67;;;5.10;;
12990;SDS011;6560;57.692;11.958;2023-04-06T09:52:21;9.53;;;5.73;;
12990;SDS011;6560;57.692;11.958;2023-04-06T09:54:51;6.73;;;5.07;;
12990;SDS011;6560;57.692;11.958;2023-04-06T09:57:34;7.87;;;5.27;;
12990;SDS011;6560;57.692;11.958;2023-04-06T10:00:08;8.40;;;5.67;;
12990;SDS011;6560;57.692;11.958;2023-04-06T10:05:28;7.50;;;5.83;;
12990;SDS011;6560;57.692;11.958;2023-04-06T10:07:57;8.37;;;5.70;;
12990;SDS011;6560;57.692;11.958;2023-04-06T10:10:26;8.50;;;5.77;;
12990;SDS011;6560;57.692;11.958;2023-04-06T10:12:53;10.20;;;6.37;;
12990;SDS011;6560;57.692;11.958;2023-04-06T10:15:20;8.60;;;5.10;;
12990;SDS011;6560;57.692;11.958;2023-04-06T10:17:46;9.90;;;5.13;;
12990;SDS011;6560;57.692;11.958;2023-04-06T10:20:15;7.90;;;6.20;;
12990;SDS011;6560;57.692;11.958;2023-04-06T10:25:34;8.77;;;6.43;;
12990;SDS011;6560;57.692;11.958;2023-04-06T10:28:06;6.93;;;5.87;;
12990;SDS011;6560;57.692;11.958;2023-04-06T10:30:41;10.33;;;6.70;;
12990;SDS011;6560;57.692;11.958;2023-04-06T10:33:13;8.37;;;6.23;;
12990;SDS011;6560;57.692;11.958;2023-04-06T10:35:40;9.30;;;6.73;;
12990;SDS011;6560;57.692;11.958;2023-04-06T10:38:05;8.53;;;6.93;;
12990;SDS011;6560;57.692;11.958;2023-04-06T10:40:32;7.73;;;6.53;;
12990;SDS011;6560;57.692;11.958;2023-04-06T10:43:10;10.20;;;7.70;;
12990;SDS011;6560;57.692;11.958;2023-04-06T10:45:38;12.47;;;7.97;;
12990;SDS011;6560;57.692;11.958;2023-04-06T10:50:41;11.53;;;8.47;;
12990;SDS011;6560;57.692;11.958;2023-04-06T10:53:10;10.80;;;8.40;;
12990;SDS011;6560;57.692;11.958;2023-04-06T10:55:35;11.80;;;8.47;;
12990;SDS011;6560;57.692;11.958;2023-04-06T10:58:07;13.33;;;9.83;;
12990;SDS011;6560;57.692;11.958;2023-04-06T11:00:33;15.03;;;9.50;;
12990;SDS011;6560;57.692;11.958;2023-04-06T11:03:00;9.73;;;8.33;;
12990;SDS011;6560;57.692;11.958;2023-04-06T11:05:28;10.83;;;8.50;;
12990;SDS011;6560;57.692;11.958;2023-04-06T11:07:55;12.30;;;8.63;;
12990;SDS011;6560;57.692;11.958;2023-04-06T11:10:21;13.07;;;9.07;;
12990;SDS011;6560;57.692;11.958;2023-04-06T11:12:52;15.17;;;9.60;;
12990;SDS011;6560;57.692;11.958;2023-04-06T11:15:19;12.77;;;8.47;;
12990;SDS011;6560;57.692;11.958;2023-04-06T11:17:45;10.10;;;7.27;;
12990;SDS011;6560;57.692;11.958;2023-04-06T11:20:11;9.57;;;6.50;;
12990;SDS011;6560;57.692;11.958;2023-04-06T11:22:47;9.47;;;5.53;;
12990;SDS011;6560;57.692;11.958;2023-04-06T11:25:14;9.97;;;6.50;;
12990;SDS011;6560;57.692;11.958;2023-04-06T11:27:41;7.57;;;6.30;;
12990;SDS011;6560;57.692;11.958;2023-04-06T11:30:08;7.70;;;5.80;;
12990;SDS011;6560;57.692;11.958;2023-04-06T11:32:44;6.30;;;5.00;;
12990;SDS011;6560;57.692;11.958;2023-04-06T11:35:22;8.50;;;4.67;;
12990;SDS011;6560;57.692;11.958;2023-04-06T11:37:49;8.63;;;5.10;;
12990;SDS011;6560;57.692;11.958;2023-04-06T11:40:15;7.13;;;4.87;;
12990;SDS011;6560;57.692;11.958;2023-04-06T11:42:51;7.37;;;4.87;;
12990;SDS011;6560;57.692;11.958;2023-04-06T11:45:17;9.57;;;6.40;;
12990;SDS011;6560;57.692;11.958;2023-04-06T11:47:43;8.17;;;4.93;;
12990;SDS011;6560;57.692;11.958;2023-04-06T11:50:12;9.00;;;5.20;;
12990;SDS011;6560;57.692;11.958;2023-04-06T11:52:39;6.63;;;4.20;;
12990;SDS011;6560;57.692;11.958;2023-04-06T11:55:15;6.23;;;4.10;;
12990;SDS011;6560;57.692;11.958;2023-04-06T11:57:42;7.60;;;4.83;;
12990;SDS011;6560;57.692;11.958;2023-04-06T12:00:08;6.17;;;4.33;;
12990;SDS011;6560;57.692;11.958;2023-04-06T12:02:35;5.57;;;3.97;;
12990;SDS011;6560;57.692;11.958;2023-04-06T12:05:02;4.93;;;3.93;;
12990;SDS011;6560;57.692;11.958;2023-04-06T12:07:28;4.37;;;2.93;;
12990;SDS011;6560;57.692;11.958;2023-04-06T12:09:55;3.93;;;3.07;;
12990;SDS011;6560;57.692;11.958;2023-04-06T12:12:21;3.93;;;3.20;;
12990;SDS011;6560;57.692;11.958;2023-04-06T12:14:46;4.77;;;3.90;;
12990;SDS011;6560;57.692;11.958;2023-04-06T12:17:12;5.67;;;4.03;;
12990;SDS011;6560;57.692;11.958;2023-04-06T12:19:38;6.10;;;3.30;;
12990;SDS011;6560;57.692;11.958;2023-04-06T12:22:04;7.63;;;3.73;;
12990;SDS011;6560;57.692;11.958;2023-04-06T12:24:30;6.80;;;3.57;;
12990;SDS011;6560;57.692;11.958;2023-04-06T12:26:55;5.93;;;3.53;;
12990;SDS011;6560;57.692;11.958;2023-04-06T12:29:22;4.13;;;2.80;;
12990;SDS011;6560;57.692;11.958;2023-04-06T12:31:47;5.57;;;3.80;;
12990;SDS011;6560;57.692;11.958;2023-04-06T12:34:13;6.87;;;3.60;;
12990;SDS011;6560;57.692;11.958;2023-04-06T12:36:38;5.97;;;3.57;;
12990;SDS011;6560;57.692;11.958;2023-04-06T12:39:05;7.27;;;3.93;;
12990;SDS011;6560;57.692;11.958;2023-04-06T12:41:30;4.50;;;3.27;;
12990;SDS011;6560;57.692;11.958;2023-04-06T12:43:56;4.87;;;3.07;;
12990;SDS011;6560;57.692;11.958;2023-04-06T12:46:24;4.07;;;3.00;;
12990;SDS011;6560;57.692;11.958;2023-04-06T12:48:50;7.70;;;3.30;;
12990;SDS011;6560;57.692;11.958;2023-04-06T12:51:18;3.40;;;3.10;;
12990;SDS011;6560;57.692;11.958;2023-04-06T12:53:44;2.87;;;2.50;;
12990;SDS011;6560;57.692;11.958;2023-04-06T12:56:14;7.47;;;2.00;;
12990;SDS011;6560;57.692;11.958;2023-04-06T12:58:46;3.93;;;2.33;;
12990;SDS011;6560;57.692;11.958;2023-04-06T13:01:11;5.07;;;3.13;;
12990;SDS011;6560;57.692;11.958;2023-04-06T13:03:38;3.17;;;2.03;;
12990;SDS011;6560;57.692;11.958;2023-04-06T13:06:03;2.30;;;1.80;;
12990;SDS011;6560;57.692;11.958;2023-04-06T13:08:29;4.53;;;1.90;;
12990;SDS011;6560;57.692;11.958;2023-04-06T13:10:55;3.67;;;1.90;;
12990;SDS011;6560;57.692;11.958;2023-04-06T13:13:25;2.77;;;2.03;;
12990;SDS011;6560;57.692;11.958;2023-04-06T13:15:51;4.27;;;1.90;;
12990;SDS011;6560;57.692;11.958;2023-04-06T13:18:18;4.07;;;1.80;;
12990;SDS011;6560;57.692;11.958;2023-04-06T13:20:43;3.17;;;2.27;;
12990;SDS011;6560;57.692;11.958;2023-04-06T13:23:09;2.10;;;1.60;;
12990;SDS011;6560;57.692;11.958;2023-04-06T13:25:35;3.67;;;1.73;;
12990;SDS011;6560;57.692;11.958;2023-04-06T13:28:00;2.27;;;1.50;;
12990;SDS011;6560;57.692;11.958;2023-04-06T13:30:26;3.83;;;1.67;;
12990;SDS011;6560;57.692;11.958;2023-04-06T13:32:52;4.43;;;2.17;;
12990;SDS011;6560;57.692;11.958;2023-04-06T13:35:17;5.37;;;2.93;;
12990;SDS011;6560;57.692;11.958;2023-04-06T13:37:43;2.63;;;2.33;;
12990;SDS011;6560;57.692;11.958;2023-04-06T13:40:09;2.63;;;1.70;;
12990;SDS011;6560;57.692;11.958;2023-04-06T13:42:35;3.67;;;2.10;;
12990;SDS011;6560;57.692;11.958;2023-04-06T13:45:06;4.63;;;1.93;;
12990;SDS011;6560;57.692;11.958;2023-04-06T13:47:32;3.40;;;2.00;;
12990;SDS011;6560;57.692;11.958;2023-04-06T13:49:58;4.00;;;2.10;;
12990;SDS011;6560;57.692;11.958;2023-04-06T13:52:24;3.13;;;2.10;;
12990;SDS011;6560;57.692;11.958;2023-04-06T13:54:49;3.77;;;2.27;;
12990;SDS011;6560;57.692;11.958;2023-04-06T13:57:15;4.13;;;2.13;;
12990;SDS011;6560;57.692;11.958;2023-04-06T13:59:42;4.80;;;2.27;;
12990;SDS011;6560;57.692;11.958;2023-04-06T14:02:08;4.27;;;2.40;;
12990;SDS011;6560;57.692;11.958;2023-04-06T14:04:35;2.57;;;1.77;;
12990;SDS011;6560;57.692;11.958;2023-04-06T14:07:01;3.37;;;2.03;;
12990;SDS011;6560;57.692;11.958;2023-04-06T14:09:28;3.70;;;2.17;;
12990;SDS011;6560;57.692;11.958;2023-04-06T14:11:55;4.40;;;2.60;;
12990;SDS011;6560;57.692;11.958;2023-04-06T14:14:21;4.03;;;2.07;;
12990;SDS011;6560;57.692;11.958;2023-04-06T14:16:47;3.67;;;1.70;;
12990;SDS011;6560;57.692;11.958;2023-04-06T14:19:14;5.87;;;2.07;;
12990;SDS011;6560;57.692;11.958;2023-04-06T14:21:42;4.73;;;2.20;;
12990;SDS011;6560;57.692;11.958;2023-04-06T14:24:08;4.73;;;2.33;;
12990;SDS011;6560;57.692;11.958;2023-04-06T14:26:37;4.43;;;2.30;;
12990;SDS011;6560;57.692;11.958;2023-04-06T14:29:04;3.93;;;2.37;;
12990;SDS011;6560;57.692;11.958;2023-04-06T14:31:30;3.60;;;2.27;;
12990;SDS011;6560;57.692;11.958;2023-04-06T14:33:56;5.17;;;1.80;;
12990;SDS011;6560;57.692;11.958;2023-04-06T14:36:22;2.40;;;2.20;;
12990;SDS011;6560;57.692;11.958;2023-04-06T14:38:49;4.70;;;2.40;;
12990;SDS011;6560;57.692;11.958;2023-04-06T14:41:16;2.57;;;2.37;;
12990;SDS011;6560;57.692;11.958;2023-04-06T14:43:42;5.30;;;2.73;;
12990;SDS011;6560;57.692;11.958;2023-04-06T14:46:10;4.70;;;2.47;;
12990;SDS011;6560;57.692;11.958;2023-04-06T14:48:35;5.33;;;2.67;;
12990;SDS011;6560;57.692;11.958;2023-04-06T14:51:08;3.40;;;2.37;;